Other Surface Observations
Issued by NWS Great Falls, MT

Home | Current Version | Previous Version | Text Only | Print | Product List | Glossary On
Versions: 1 2 3 4 5 6 7 8 9 10 11 12 13 14 15 16 17 18 19 20 21 22 23 24 25 26 27 28 29 30 31 32 33 34 35 36 37 38 39 40 41 42 43 44 45 46 47 48 49 50
118
SXUS55 KTFX 301906
OSOTFX

AREA AWOS OBSERVATIONS
NATIONAL WEATHER SERVICE GREAT FALLS MT
0106 PM MDT Sun Apr 30 2017

METAR K6S8 301855Z AUTO 19012KT 40SM 15/00 A2992 RMK A01 T01500000
METAR K7S1 301855Z AUTO 13012KT 40SM 12/M03 A2999 RMK A01 T01161033
METAR K97M 301855Z AUTO 15005KT 40SM 15/M06 A2992 RMK A01 T01501061
METAR K9S2 301855Z AUTO 22018KT 40SM 18/M03 A2982 RMK A01 T01771027
METAR K9S5 301855Z AUTO 20005KT 40SM 13/M47 A2996 RMK A01 T01331472
METAR KRPX 301855Z AUTO 23011KT 40SM 14/01 A2982 RMK A01 T01440005
METAR KS34 301855Z AUTO 27011KT 10SM 11/06 A3002 RMK A01 T01110055



USA.gov is the U.S. government's official web portal to all federal, state and local government web resources and services.